Time;durP1;ratioP1;P1;durP2;ratioP2;P2;SDS_P1;SDS_P2;PMS_P1;PMS_P2;Temp;Humidity;BMP_temperature;BMP_pressure;BME280_temperature;BME280_humidity;BME280_pressure;Samples;Min_cycle;Max_cycle;Signal;HPM_P1;HPM_P2
2020/12/21 00:00:29;;;;;;;2.13;1.97;;;4.50;91.60;;;;;;4973772;28;20189;-81
2020/12/21 00:02:54;;;;;;;2.07;1.93;;;4.50;91.50;;;;;;4967459;28;20202;-80
2020/12/21 00:05:20;;;;;;;1.73;1.63;;;4.50;91.60;;;;;;4975805;28;20714;-80
2020/12/21 00:07:46;;;;;;;2.37;2.13;;;4.40;91.70;;;;;;4992952;28;20206;-80
2020/12/21 00:10:12;;;;;;;3.13;2.70;;;4.50;91.80;;;;;;4976026;28;20189;-80
2020/12/21 00:12:37;;;;;;;2.77;1.97;;;4.50;91.80;;;;;;4966825;28;20546;-80
2020/12/21 00:15:07;;;;;;;1.77;1.67;;;4.50;91.70;;;;;;4946759;28;21011;-80
2020/12/21 00:17:34;;;;;;;1.73;1.63;;;4.50;91.70;;;;;;4953476;28;20213;-79
2020/12/21 00:19:59;;;;;;;2.47;1.87;;;4.50;91.70;;;;;;4967835;28;20269;-79
2020/12/21 00:22:25;;;;;;;2.80;1.90;;;4.50;91.70;;;;;;4963118;28;20298;-80
2020/12/21 00:24:51;;;;;;;2.57;2.03;;;4.50;91.40;;;;;;4954103;29;20234;-79
2020/12/21 00:27:17;;;;;;;2.97;1.40;;;4.50;91.40;;;;;;4936623;29;20191;-79
2020/12/21 00:29:43;;;;;;;2.70;2.13;;;4.50;91.30;;;;;;4952886;29;20183;-79
2020/12/21 00:32:09;;;;;;;1.77;1.67;;;4.60;91.20;;;;;;4953868;29;20183;-80
2020/12/21 00:34:35;;;;;;;3.80;1.73;;;4.60;91.20;;;;;;4975932;28;20185;-79
2020/12/21 00:37:00;;;;;;;2.20;1.80;;;4.60;91.20;;;;;;4975140;28;20221;-79
2020/12/21 00:39:26;;;;;;;3.50;2.33;;;4.60;91.10;;;;;;4972922;28;20178;-80
2020/12/21 00:41:52;;;;;;;1.97;1.57;;;4.60;90.90;;;;;;4949602;29;20665;-80
2020/12/21 00:44:17;;;;;;;3.33;1.83;;;4.60;90.70;;;;;;4973302;28;20622;-79
2020/12/21 00:46:43;;;;;;;1.73;1.63;;;4.60;90.60;;;;;;4953052;28;20193;-80
2020/12/21 00:49:09;;;;;;;2.70;1.97;;;4.60;90.60;;;;;;4952743;29;20207;-80
2020/12/21 00:51:36;;;;;;;2.20;2.10;;;4.60;90.70;;;;;;4952709;29;20210;-79
2020/12/21 00:54:02;;;;;;;2.30;2.10;;;4.60;90.70;;;;;;4952382;29;20183;-79
2020/12/21 00:56:28;;;;;;;1.57;1.47;;;4.60;90.30;;;;;;4961797;28;20632;-79
2020/12/21 00:58:54;;;;;;;1.57;1.47;;;4.60;90.40;;;;;;4955463;28;20183;-79
2020/12/21 01:01:21;;;;;;;2.00;1.90;;;4.60;90.40;;;;;;4972913;28;20178;-79
2020/12/21 01:03:47;;;;;;;2.00;1.83;;;4.60;90.50;;;;;;4955519;28;20202;-79
2020/12/21 01:06:13;;;;;;;1.50;1.40;;;4.60;90.60;;;;;;4956016;28;20190;-79
2020/12/21 01:08:39;;;;;;;2.23;1.80;;;4.50;90.40;;;;;;4971484;28;20253;-81
2020/12/21 01:11:10;;;;;;;2.57;2.10;;;4.50;90.40;;;;;;4972972;28;20182;-80
2020/12/21 01:13:36;;;;;;;2.37;1.80;;;4.40;90.50;;;;;;4971537;28;20182;-80
2020/12/21 01:16:02;;;;;;;1.70;1.43;;;4.40;90.70;;;;;;4960104;28;20280;-80
2020/12/21 01:18:28;;;;;;;1.87;1.50;;;4.40;91.00;;;;;;4953672;29;20274;-80
2020/12/21 01:20:53;;;;;;;3.60;2.07;;;4.40;91.00;;;;;;4936322;29;20195;-80
2020/12/21 01:23:20;;;;;;;1.90;1.80;;;4.40;91.00;;;;;;4936260;29;20183;-80
2020/12/21 01:25:46;;;;;;;2.30;2.00;;;4.40;91.00;;;;;;4953188;29;20648;-80
2020/12/21 01:28:11;;;;;;;1.77;1.67;;;4.50;90.70;;;;;;4989674;28;20217;-80
2020/12/21 01:30:37;;;;;;;2.33;1.90;;;4.50;90.80;;;;;;4977558;28;20217;-80
2020/12/21 01:33:03;;;;;;;1.50;1.40;;;4.50;90.70;;;;;;4970555;28;20202;-80
2020/12/21 01:35:28;;;;;;;2.37;2.17;;;4.50;90.70;;;;;;4952675;29;20189;-80
2020/12/21 01:37:55;;;;;;;2.57;2.10;;;4.50;90.70;;;;;;4953234;29;20183;-80
2020/12/21 01:40:20;;;;;;;2.53;1.63;;;4.50;90.70;;;;;;4955258;28;20186;-80
2020/12/21 01:42:46;;;;;;;2.13;1.83;;;4.50;90.70;;;;;;4971642;28;20189;-80
2020/12/21 01:45:12;;;;;;;1.67;1.57;;;4.50;90.70;;;;;;4970713;28;20251;-81
2020/12/21 01:47:38;;;;;;;1.70;1.60;;;4.50;90.80;;;;;;4952642;29;21155;-80
2020/12/21 01:50:05;;;;;;;1.83;1.73;;;4.60;90.70;;;;;;4935639;29;20188;-81
2020/12/21 01:52:31;;;;;;;2.53;2.33;;;4.60;90.60;;;;;;4957527;28;20194;-79
2020/12/21 01:54:58;;;;;;;2.83;2.03;;;4.60;90.60;;;;;;4964167;28;20186;-80
2020/12/21 01:57:24;;;;;;;3.17;1.97;;;4.60;90.60;;;;;;4950714;29;20274;-79
2020/12/21 01:59:50;;;;;;;3.10;2.40;;;4.60;90.60;;;;;;4952212;29;20187;-79
2020/12/21 02:02:15;;;;;;;3.57;2.03;;;4.60;90.60;;;;;;4940694;28;20190;-79
2020/12/21 02:04:41;;;;;;;1.90;1.73;;;4.60;90.30;;;;;;4971196;28;20197;-79
2020/12/21 02:07:07;;;;;;;3.27;1.80;;;4.60;90.40;;;;;;4966551;28;20222;-79
2020/12/21 02:09:34;;;;;;;2.40;2.13;;;4.60;90.40;;;;;;4950079;28;20306;-79
2020/12/21 02:12:00;;;;;;;1.87;1.67;;;4.60;90.40;;;;;;4952752;28;20190;-80
2020/12/21 02:14:28;;;;;;;1.97;1.80;;;4.70;90.40;;;;;;4954614;28;20553;-79
2020/12/21 02:16:54;;;;;;;2.33;2.13;;;4.70;90.30;;;;;;4952584;29;20209;-80
2020/12/21 02:19:20;;;;;;;1.73;1.57;;;4.60;90.30;;;;;;4958290;28;20616;-79
2020/12/21 02:21:46;;;;;;;2.30;1.80;;;4.60;90.40;;;;;;4974074;28;20615;-79
2020/12/21 02:24:13;;;;;;;2.13;1.93;;;4.60;90.40;;;;;;4990668;28;20185;-78
2020/12/21 02:26:39;;;;;;;2.57;2.27;;;4.60;90.40;;;;;;4973117;28;20189;-78
2020/12/21 02:29:04;;;;;;;2.57;2.07;;;4.60;90.50;;;;;;4973557;28;20210;-79
2020/12/21 02:31:30;;;;;;;1.70;1.63;;;4.60;90.50;;;;;;4967208;28;20191;-78
2020/12/21 02:33:56;;;;;;;2.00;1.90;;;4.60;90.60;;;;;;4975580;28;20217;-79
2020/12/21 02:36:22;;;;;;;2.97;2.20;;;4.70;90.60;;;;;;4973230;28;20268;-78
2020/12/21 02:38:47;;;;;;;2.33;2.13;;;4.70;90.70;;;;;;4973305;28;20663;-79
2020/12/21 02:41:15;;;;;;;1.77;1.67;;;4.70;90.60;;;;;;4973449;28;20878;-79
2020/12/21 02:43:40;;;;;;;2.10;2.00;;;4.70;90.60;;;;;;4990501;28;20184;-78
2020/12/21 02:46:13;;;;;;;2.17;1.63;;;4.70;90.50;;;;;;4990117;28;20177;-79
2020/12/21 02:48:38;;;;;;;3.23;2.70;;;4.70;90.50;;;;;;4951705;29;20703;-79
2020/12/21 02:51:04;;;;;;;1.60;1.50;;;4.70;90.40;;;;;;4961400;28;20210;-79
2020/12/21 02:53:30;;;;;;;2.73;1.93;;;4.70;90.50;;;;;;4953284;28;20187;-79
2020/12/21 02:55:55;;;;;;;1.83;1.67;;;4.70;90.60;;;;;;4971524;28;20930;-79
2020/12/21 02:58:21;;;;;;;1.90;1.80;;;4.60;90.60;;;;;;4953805;28;20190;-79
2020/12/21 03:00:47;;;;;;;1.77;1.50;;;4.70;90.70;;;;;;4966332;28;20201;-79
2020/12/21 03:03:13;;;;;;;1.80;1.70;;;4.70;90.60;;;;;;4952058;29;20194;-78
2020/12/21 03:05:39;;;;;;;3.37;1.80;;;4.70;90.60;;;;;;4934110;29;20191;-79
2020/12/21 03:08:07;;;;;;;1.53;1.53;;;4.70;90.60;;;;;;4950300;29;20301;-81
2020/12/21 03:10:33;;;;;;;1.80;1.70;;;4.70;90.60;;;;;;4967507;28;20220;-80
2020/12/21 03:12:59;;;;;;;2.83;1.83;;;4.70;90.60;;;;;;4953407;28;20186;-80
2020/12/21 03:15:25;;;;;;;1.93;1.63;;;4.70;90.50;;;;;;4937466;29;20183;-80
2020/12/21 03:17:51;;;;;;;2.10;1.50;;;4.70;90.50;;;;;;4956787;28;20201;-80
2020/12/21 03:20:17;;;;;;;2.77;2.43;;;4.80;90.40;;;;;;4961510;28;20210;-79
2020/12/21 03:22:43;;;;;;;1.93;1.57;;;4.80;90.30;;;;;;4955139;29;20205;-80
2020/12/21 03:25:08;;;;;;;2.07;1.87;;;4.80;90.20;;;;;;4955225;29;20202;-79
2020/12/21 03:27:35;;;;;;;1.43;1.23;;;4.80;90.20;;;;;;4953875;28;20217;-79
2020/12/21 03:30:03;;;;;;;2.87;1.90;;;4.80;90.10;;;;;;4974138;28;20170;-79
2020/12/21 03:32:29;;;;;;;1.77;1.67;;;4.80;90.30;;;;;;4956962;28;20242;-80
2020/12/21 03:34:55;;;;;;;2.03;1.83;;;4.70;90.00;;;;;;4973784;28;20262;-80
2020/12/21 03:37:20;;;;;;;3.90;1.73;;;4.70;90.10;;;;;;4968386;28;20287;-81
2020/12/21 03:39:46;;;;;;;1.80;1.70;;;4.70;90.30;;;;;;4973732;28;20626;-80
2020/12/21 03:42:12;;;;;;;1.90;1.80;;;4.70;90.30;;;;;;4981759;28;20186;-80
2020/12/21 03:44:37;;;;;;;3.30;2.27;;;4.70;90.40;;;;;;4956604;28;20190;-81
2020/12/21 03:47:03;;;;;;;1.90;1.80;;;4.70;90.40;;;;;;4954133;28;20175;-80
2020/12/21 03:49:29;;;;;;;2.10;1.87;;;4.70;90.50;;;;;;4956716;28;20221;-80
2020/12/21 03:51:54;;;;;;;2.23;2.03;;;4.70;90.50;;;;;;4974341;28;21031;-80
2020/12/21 03:54:21;;;;;;;1.67;1.57;;;4.80;90.40;;;;;;4957063;28;20183;-80
2020/12/21 03:56:46;;;;;;;2.43;2.23;;;4.80;90.50;;;;;;4973050;28;20210;-80
2020/12/21 03:59:12;;;;;;;2.67;2.17;;;4.80;90.50;;;;;;4956335;28;20217;-79
2020/12/21 04:01:39;;;;;;;2.30;2.10;;;4.80;90.50;;;;;;4991057;28;20216;-79
2020/12/21 04:04:06;;;;;;;2.00;1.80;;;4.80;90.50;;;;;;4993476;28;20738;-79
2020/12/21 04:06:32;;;;;;;2.43;2.23;;;4.90;90.50;;;;;;4966197;28;20198;-79
2020/12/21 04:08:57;;;;;;;4.07;2.33;;;4.90;90.40;;;;;;4972063;28;20871;-79
2020/12/21 04:11:23;;;;;;;2.90;2.20;;;4.90;90.30;;;;;;4993421;28;20185;-79
2020/12/21 04:13:49;;;;;;;2.80;2.00;;;4.90;90.30;;;;;;4993325;28;20228;-79
2020/12/21 04:16:15;;;;;;;5.20;1.77;;;4.90;90.30;;;;;;4993023;28;20569;-79
2020/12/21 04:18:40;;;;;;;2.47;2.33;;;4.90;90.30;;;;;;4975873;28;21067;-79
2020/12/21 04:21:13;;;;;;;2.37;2.10;;;4.90;90.30;;;;;;4968410;28;20183;-79
2020/12/21 04:23:42;;;;;;;3.70;2.27;;;4.90;90.30;;;;;;4954221;29;20179;-80
2020/12/21 04:26:08;;;;;;;2.93;2.70;;;4.90;90.20;;;;;;4964962;28;20194;-80
2020/12/21 04:28:35;;;;;;;2.87;2.10;;;4.90;90.20;;;;;;4973482;28;20206;-80
2020/12/21 04:31:06;;;;;;;2.83;2.57;;;4.90;90.30;;;;;;4955257;28;20190;-79
2020/12/21 04:33:32;;;;;;;2.60;2.33;;;4.90;90.20;;;;;;4962975;28;20183;-79
2020/12/21 04:35:58;;;;;;;2.90;2.70;;;5.00;90.20;;;;;;4985569;28;20217;-79
2020/12/21 04:38:24;;;;;;;2.93;2.63;;;5.00;90.20;;;;;;4975643;28;20233;-79
2020/12/21 04:40:55;;;;;;;2.33;2.13;;;5.00;90.20;;;;;;4975609;28;20221;-79
2020/12/21 04:43:22;;;;;;;3.60;2.17;;;5.00;90.10;;;;;;4975642;28;20713;-79
2020/12/21 04:45:52;;;;;;;4.23;3.13;;;5.00;90.20;;;;;;4970457;28;20190;-80
2020/12/21 04:48:23;;;;;;;5.43;2.97;;;5.00;90.20;;;;;;4957404;28;20214;-79
2020/12/21 04:50:53;;;;;;;2.30;2.07;;;5.00;90.20;;;;;;4952414;29;20171;-80
2020/12/21 04:53:20;;;;;;;2.63;2.23;;;5.00;90.20;;;;;;4969835;28;20686;-80
2020/12/21 04:55:46;;;;;;;4.37;2.13;;;5.00;90.20;;;;;;4973359;28;20183;-80
2020/12/21 04:58:12;;;;;;;2.90;2.70;;;5.00;90.20;;;;;;4955881;28;20194;-79
2020/12/21 05:00:38;;;;;;;3.37;2.30;;;5.00;90.20;;;;;;4980778;28;20666;-80
2020/12/21 05:03:04;;;;;;;2.37;2.17;;;5.00;90.30;;;;;;4975220;28;20208;-80
2020/12/21 05:05:35;;;;;;;3.03;2.37;;;5.00;90.40;;;;;;4992965;28;20285;-79
2020/12/21 05:08:11;;;;;;;4.20;2.40;;;5.00;90.30;;;;;;4962992;28;20277;-80
2020/12/21 05:10:39;;;;;;;1.90;1.80;;;5.00;90.40;;;;;;4972890;28;20190;-80
2020/12/21 05:13:05;;;;;;;4.37;2.23;;;5.00;90.50;;;;;;4972414;28;20193;-81
2020/12/21 05:15:31;;;;;;;1.90;1.40;;;5.00;90.30;;;;;;4987499;28;20188;-81
2020/12/21 05:18:10;;;;;;;5.20;2.03;;;5.00;90.30;;;;;;4992499;28;20186;-80
2020/12/21 05:20:40;;;;;;;2.93;1.80;;;5.00;90.30;;;;;;4992538;28;20181;-81
2020/12/21 05:23:15;;;;;;;2.13;2.03;;;5.00;90.40;;;;;;4974854;28;20193;-80
2020/12/21 05:25:41;;;;;;;2.13;2.03;;;5.00;90.40;;;;;;4959200;28;20222;-81
2020/12/21 05:28:14;;;;;;;2.17;2.07;;;5.00;90.50;;;;;;4955079;28;20215;-81
2020/12/21 05:30:58;;;;;;;2.50;2.30;;;5.00;90.40;;;;;;4953482;29;20178;-80
2020/12/21 05:33:24;;;;;;;5.23;2.60;;;5.00;90.30;;;;;;4952315;29;20179;-81
2020/12/21 05:35:50;;;;;;;2.20;2.10;;;5.00;90.30;;;;;;4988847;28;20952;-81
2020/12/21 05:38:25;;;;;;;2.50;2.40;;;5.00;90.40;;;;;;4975324;28;20186;-81
2020/12/21 05:40:53;;;;;;;2.10;1.93;;;5.00;90.30;;;;;;4981165;28;20635;-81
2020/12/21 05:43:26;;;;;;;4.10;2.93;;;5.00;90.40;;;;;;4972730;28;20318;-80
2020/12/21 05:46:23;;;;;;;2.43;2.13;;;5.00;90.40;;;;;;4954795;28;20193;-81
2020/12/21 05:48:56;;;;;;;2.40;2.20;;;5.00;90.30;;;;;;4911065;29;20228;-80
2020/12/21 05:51:25;;;;;;;3.60;3.30;;;5.00;90.50;;;;;;4913452;29;20191;-80
2020/12/21 05:53:55;;;;;;;4.77;2.90;;;5.00;90.50;;;;;;4891034;29;20197;-80
2020/12/21 05:56:23;;;;;;;3.27;2.93;;;5.00;90.50;;;;;;4912801;29;20599;-81
2020/12/21 05:58:50;;;;;;;3.10;3.00;;;5.00;90.50;;;;;;4908218;29;20723;-80
2020/12/21 06:01:17;;;;;;;2.47;2.30;;;5.00;90.50;;;;;;4911156;29;20312;-81
2020/12/21 06:03:50;;;;;;;3.60;2.60;;;5.00;90.50;;;;;;4891149;29;20216;-79
2020/12/21 06:06:19;;;;;;;3.73;3.43;;;5.00;90.50;;;;;;4904270;29;20282;-83
2020/12/21 06:08:47;;;;;;;2.90;2.70;;;5.00;90.50;;;;;;4882098;29;20240;-83
2020/12/21 06:11:17;;;;;;;5.40;3.30;;;5.00;90.50;;;;;;4909426;29;20180;-83
2020/12/21 06:13:48;;;;;;;6.37;3.90;;;5.00;90.60;;;;;;4904189;29;20267;-82
2020/12/21 06:16:16;;;;;;;4.20;3.50;;;5.00;90.60;;;;;;4910138;29;20600;-86
2020/12/21 06:18:42;;;;;;;3.43;3.10;;;5.00;90.70;;;;;;4899561;29;20296;-86
2020/12/21 06:21:08;;;;;;;5.37;4.07;;;5.00;90.80;;;;;;4895083;29;20285;-80
2020/12/21 06:23:39;;;;;;;5.07;3.67;;;5.00;90.80;;;;;;4904956;29;20188;-81
2020/12/21 06:26:11;;;;;;;3.77;3.47;;;5.00;90.80;;;;;;4950054;28;20267;-80
2020/12/21 06:28:38;;;;;;;5.03;3.57;;;5.00;90.80;;;;;;4961833;28;20248;-84
2020/12/21 06:31:14;;;;;;;5.37;3.57;;;5.00;91.00;;;;;;4970630;28;20189;-86
2020/12/21 06:33:41;;;;;;;4.97;3.10;;;5.00;90.80;;;;;;4956646;28;20193;-81
2020/12/21 06:36:07;;;;;;;5.60;3.63;;;5.00;91.00;;;;;;4952131;28;20187;-78
2020/12/21 06:38:46;;;;;;;4.73;3.33;;;5.00;91.00;;;;;;4953451;28;20183;-79
2020/12/21 06:41:26;;;;;;;4.43;3.27;;;5.00;91.00;;;;;;4962871;28;20671;-82
2020/12/21 06:44:07;;;;;;;6.13;3.70;;;5.00;91.10;;;;;;4954454;28;20189;-89
2020/12/21 06:46:34;;;;;;;5.97;4.20;;;5.00;91.10;;;;;;4954872;28;20198;-78
2020/12/21 06:49:08;;;;;;;5.60;4.23;;;5.10;91.10;;;;;;4955184;28;20214;-76
2020/12/21 06:51:35;;;;;;;4.53;3.63;;;5.10;91.10;;;;;;4967459;28;20217;-78
2020/12/21 06:54:05;;;;;;;8.23;4.27;;;5.10;91.10;;;;;;4963667;28;20186;-78
2020/12/21 06:56:31;;;;;;;6.50;4.20;;;5.10;91.10;;;;;;4951793;28;20266;-77
2020/12/21 06:58:59;;;;;;;8.13;4.50;;;5.10;91.10;;;;;;4948188;29;20245;-77
2020/12/21 07:01:27;;;;;;;6.00;3.97;;;5.20;90.90;;;;;;4953578;28;20230;-76
2020/12/21 07:03:54;;;;;;;7.13;4.90;;;5.20;90.90;;;;;;4964772;28;20202;-76
2020/12/21 07:06:20;;;;;;;7.33;5.37;;;5.20;90.80;;;;;;4962967;28;20186;-76
2020/12/21 07:08:46;;;;;;;5.90;4.10;;;5.30;90.80;;;;;;4959457;28;20655;-76
2020/12/21 07:11:22;;;;;;;5.03;4.23;;;5.30;90.70;;;;;;4959820;28;20190;-77
2020/12/21 07:13:49;;;;;;;6.83;4.63;;;5.30;90.60;;;;;;4967867;28;20635;-76
2020/12/21 07:16:19;;;;;;;4.90;4.20;;;5.40;90.70;;;;;;4964859;28;20553;-76
2020/12/21 07:18:46;;;;;;;14.07;4.63;;;5.40;90.70;;;;;;4951009;28;20197;-77
2020/12/21 07:21:12;;;;;;;6.03;4.13;;;5.50;90.70;;;;;;4964617;28;20650;-77
2020/12/21 07:23:39;;;;;;;9.07;4.10;;;5.50;90.50;;;;;;4952500;28;20370;-78
2020/12/21 07:26:09;;;;;;;9.00;5.00;;;5.50;90.50;;;;;;4954585;28;20187;-77
2020/12/21 07:28:35;;;;;;;9.57;4.50;;;5.60;90.30;;;;;;4959644;28;20202;-77
2020/12/21 07:31:12;;;;;;;8.73;4.73;;;5.60;90.10;;;;;;4950216;28;20183;-77
2020/12/21 07:33:56;;;;;;;4.43;3.70;;;5.60;89.70;;;;;;4955426;28;20190;-77
2020/12/21 07:36:27;;;;;;;8.13;4.87;;;5.60;89.80;;;;;;4959257;28;20170;-77
2020/12/21 07:39:03;;;;;;;4.60;4.10;;;5.60;89.80;;;;;;4967078;28;20333;-77
2020/12/21 07:41:32;;;;;;;6.00;4.77;;;5.60;90.00;;;;;;4965163;28;20198;-76
2020/12/21 07:44:12;;;;;;;4.77;4.10;;;5.50;89.90;;;;;;4966228;28;20248;-76
2020/12/21 07:46:53;;;;;;;7.37;4.07;;;5.60;89.80;;;;;;4967767;28;20182;-76
2020/12/21 07:49:19;;;;;;;4.47;3.93;;;5.60;90.00;;;;;;4965281;28;20289;-76
2020/12/21 07:51:47;;;;;;;7.23;4.30;;;5.60;90.10;;;;;;4966925;28;20194;-76
2020/12/21 07:54:13;;;;;;;6.60;3.87;;;5.70;90.00;;;;;;4965827;28;20241;-76
2020/12/21 07:56:43;;;;;;;8.00;4.87;;;5.70;90.00;;;;;;4958768;28;20195;-76
2020/12/21 07:59:16;;;;;;;7.43;5.30;;;5.80;89.90;;;;;;4966426;28;20190;-76
2020/12/21 08:01:44;;;;;;;8.70;4.90;;;5.80;89.80;;;;;;4966752;28;20179;-76
2020/12/21 08:04:17;;;;;;;6.07;4.70;;;5.90;89.70;;;;;;4946284;28;20213;-77
2020/12/21 08:06:44;;;;;;;3.93;3.57;;;5.90;89.40;;;;;;4967155;28;20182;-75
2020/12/21 08:09:11;;;;;;;4.87;3.73;;;5.90;89.40;;;;;;4968175;28;20289;-76
2020/12/21 08:11:37;;;;;;;5.53;4.13;;;6.00;89.20;;;;;;4950745;28;20190;-75
2020/12/21 08:14:03;;;;;;;6.63;4.73;;;6.00;89.00;;;;;;4970609;28;20183;-76
2020/12/21 08:16:29;;;;;;;7.87;4.20;;;6.00;89.00;;;;;;4969911;28;20198;-75
2020/12/21 08:18:56;;;;;;;6.70;4.37;;;6.00;88.90;;;;;;4964729;28;20217;-76
2020/12/21 08:21:23;;;;;;;10.60;4.13;;;6.00;89.00;;;;;;4953325;28;20202;-76
2020/12/21 08:23:55;;;;;;;7.33;3.80;;;6.00;88.70;;;;;;4965137;28;20200;-77
2020/12/21 08:26:21;;;;;;;5.13;4.13;;;6.00;88.30;;;;;;4968382;28;20207;-76
2020/12/21 08:28:49;;;;;;;6.03;3.90;;;6.00;88.30;;;;;;4967645;28;21214;-76
2020/12/21 08:31:23;;;;;;;3.77;3.47;;;6.10;88.30;;;;;;4963977;28;20186;-76
2020/12/21 08:34:07;;;;;;;6.23;4.10;;;6.00;88.10;;;;;;4958384;28;20183;-76
2020/12/21 08:36:37;;;;;;;4.57;3.80;;;6.10;87.90;;;;;;4969710;28;20179;-75
2020/12/21 08:39:15;;;;;;;11.10;4.20;;;6.10;87.80;;;;;;4965021;28;20221;-76
2020/12/21 08:42:00;;;;;;;3.83;3.53;;;6.10;88.20;;;;;;4951870;28;20182;-77
2020/12/21 08:44:28;;;;;;;4.93;4.43;;;6.10;87.90;;;;;;4965671;28;20174;-75
2020/12/21 08:46:55;;;;;;;6.63;4.43;;;6.10;87.80;;;;;;4952206;28;20563;-76
2020/12/21 08:49:27;;;;;;;6.43;4.30;;;6.10;87.30;;;;;;4968723;28;20987;-76
2020/12/21 08:51:58;;;;;;;5.53;4.90;;;6.10;87.40;;;;;;4965097;28;20229;-78
2020/12/21 08:54:24;;;;;;;8.30;5.10;;;6.00;87.40;;;;;;4958005;28;20179;-76
2020/12/21 08:56:53;;;;;;;6.77;4.73;;;6.00;88.00;;;;;;4951669;28;20761;-76
2020/12/21 08:59:19;;;;;;;5.73;4.80;;;6.00;88.00;;;;;;4950880;28;20210;-75
2020/12/21 09:01:45;;;;;;;6.53;4.23;;;6.00;88.20;;;;;;4964515;28;20690;-75
2020/12/21 09:04:11;;;;;;;3.53;3.17;;;6.00;88.30;;;;;;4967379;28;20226;-75
2020/12/21 09:06:37;;;;;;;4.13;3.63;;;6.10;88.20;;;;;;4969329;28;20178;-76
2020/12/21 09:09:05;;;;;;;3.93;3.53;;;6.10;87.80;;;;;;4967466;28;20208;-75
2020/12/21 09:11:30;;;;;;;4.27;3.03;;;6.20;87.80;;;;;;4969861;28;20714;-75
2020/12/21 09:13:56;;;;;;;4.30;3.73;;;6.20;87.90;;;;;;4967185;28;20266;-75
2020/12/21 09:16:24;;;;;;;5.33;4.50;;;6.30;87.70;;;;;;4966897;28;20185;-76
2020/12/21 09:18:54;;;;;;;4.70;4.10;;;6.30;87.50;;;;;;4956415;28;20871;-76
2020/12/21 09:21:24;;;;;;;6.73;5.13;;;6.40;87.40;;;;;;4967501;28;20170;-76
2020/12/21 09:23:51;;;;;;;12.83;5.07;;;6.40;87.50;;;;;;4975819;28;20277;-76
2020/12/21 09:26:18;;;;;;;7.93;5.40;;;6.50;87.00;;;;;;4955840;28;20282;-76
2020/12/21 09:28:44;;;;;;;5.53;4.80;;;6.50;87.10;;;;;;4959785;28;20211;-76
2020/12/21 09:31:11;;;;;;;8.20;5.13;;;6.50;86.60;;;;;;4951048;28;20183;-76
2020/12/21 09:33:38;;;;;;;5.67;4.83;;;6.50;85.90;;;;;;4966602;28;20178;-77
2020/12/21 09:36:05;;;;;;;6.73;5.70;;;6.60;86.10;;;;;;4966202;28;20245;-78
2020/12/21 09:38:31;;;;;;;7.40;5.30;;;6.60;86.00;;;;;;4963530;28;20190;-77
2020/12/21 09:40:57;;;;;;;6.77;5.20;;;6.60;86.50;;;;;;4967645;28;20186;-76
2020/12/21 09:43:22;;;;;;;9.20;6.33;;;6.60;86.10;;;;;;4968362;28;20667;-76
2020/12/21 09:45:48;;;;;;;10.37;6.83;;;6.60;86.40;;;;;;4948133;28;20199;-77
2020/12/21 09:48:14;;;;;;;13.10;7.17;;;6.60;86.20;;;;;;4962862;28;20204;-76
2020/12/21 09:50:39;;;;;;;10.17;6.50;;;6.60;86.40;;;;;;4958285;28;20258;-76
2020/12/21 09:53:05;;;;;;;8.83;6.27;;;6.60;86.70;;;;;;4955622;28;21001;-75
2020/12/21 09:55:31;;;;;;;8.57;6.33;;;6.70;86.30;;;;;;4960012;28;20182;-75
2020/12/21 09:57:56;;;;;;;12.77;6.47;;;6.70;85.70;;;;;;4957384;28;20198;-76
2020/12/21 10:00:22;;;;;;;9.27;6.83;;;6.60;85.90;;;;;;4963858;28;20187;-75
2020/12/21 10:02:48;;;;;;;12.13;6.40;;;6.70;86.10;;;;;;4962989;28;20205;-75
2020/12/21 10:05:14;;;;;;;9.07;6.60;;;6.70;86.10;;;;;;4961248;28;20179;-75
2020/12/21 10:07:39;;;;;;;10.07;5.80;;;6.70;86.30;;;;;;4959996;28;20193;-75
2020/12/21 10:10:05;;;;;;;9.03;6.43;;;6.60;85.70;;;;;;4959909;28;20178;-75
2020/12/21 10:12:36;;;;;;;14.10;6.33;;;6.60;85.20;;;;;;4963138;28;20182;-77
2020/12/21 10:15:02;;;;;;;13.00;6.40;;;6.60;85.80;;;;;;4965980;28;20217;-75
2020/12/21 10:17:27;;;;;;;9.93;6.77;;;6.60;86.00;;;;;;4963074;28;20291;-75
2020/12/21 10:19:53;;;;;;;9.63;6.60;;;6.60;85.60;;;;;;4963801;28;20219;-75
2020/12/21 10:22:19;;;;;;;10.73;6.73;;;6.70;86.00;;;;;;4957990;28;20252;-75
2020/12/21 10:24:44;;;;;;;9.20;6.00;;;6.70;85.80;;;;;;4965353;28;20321;-75
2020/12/21 10:27:10;;;;;;;8.70;6.67;;;6.70;85.70;;;;;;4938739;28;20217;-76
2020/12/21 10:29:36;;;;;;;8.27;5.60;;;6.70;85.60;;;;;;4965173;28;20206;-76
2020/12/21 10:32:01;;;;;;;11.40;7.33;;;6.70;85.00;;;;;;4960963;28;20340;-77
2020/12/21 10:34:27;;;;;;;8.43;6.17;;;6.60;85.00;;;;;;4955946;28;20238;-76
2020/12/21 10:36:53;;;;;;;14.30;7.17;;;6.50;84.70;;;;;;4957749;28;20197;-75
2020/12/21 10:39:19;;;;;;;13.50;5.93;;;6.40;84.90;;;;;;4963586;28;20190;-75
2020/12/21 10:41:45;;;;;;;15.57;5.93;;;6.30;85.10;;;;;;4964692;28;20228;-76
2020/12/21 10:44:11;;;;;;;7.03;5.80;;;6.30;85.30;;;;;;4961310;28;20987;-77
2020/12/21 10:46:37;;;;;;;9.97;6.33;;;6.30;85.60;;;;;;4960291;28;20190;-77
2020/12/21 10:49:03;;;;;;;8.70;6.10;;;6.30;86.10;;;;;;4966478;28;20702;-76
2020/12/21 10:51:30;;;;;;;9.57;6.27;;;6.30;86.40;;;;;;4944187;28;20178;-76
2020/12/21 10:53:56;;;;;;;8.43;6.47;;;6.30;86.30;;;;;;4965148;28;20179;-76
2020/12/21 10:56:23;;;;;;;7.17;5.47;;;6.30;86.60;;;;;;4965408;28;20190;-77
2020/12/21 10:58:49;;;;;;;7.30;5.90;;;6.40;86.50;;;;;;4967120;28;20189;-76
2020/12/21 11:01:18;;;;;;;8.97;6.33;;;6.40;85.80;;;;;;4954134;28;20186;-76
2020/12/21 11:03:45;;;;;;;8.50;6.47;;;6.40;85.80;;;;;;4864076;28;2454128;-76
2020/12/21 11:06:11;;;;;;;11.37;6.77;;;6.40;85.70;;;;;;4966447;28;20190;-76
2020/12/21 11:08:38;;;;;;;9.13;6.43;;;6.40;85.20;;;;;;4960283;28;20306;-77
2020/12/21 11:11:04;;;;;;;8.63;6.50;;;6.40;85.30;;;;;;4950823;28;20576;-76
2020/12/21 11:13:30;;;;;;;11.80;7.30;;;6.30;85.50;;;;;;4966407;28;20190;-76
2020/12/21 11:15:56;;;;;;;12.30;7.60;;;6.20;85.90;;;;;;4965762;28;20324;-77
2020/12/21 11:18:22;;;;;;;7.83;6.17;;;6.30;86.20;;;;;;4966431;28;20663;-76
2020/12/21 11:20:47;;;;;;;13.10;7.10;;;6.30;86.20;;;;;;4967119;28;20254;-75
2020/12/21 11:23:13;;;;;;;11.33;7.17;;;6.30;86.40;;;;;;4967627;28;20186;-76
2020/12/21 11:25:39;;;;;;;9.83;7.00;;;6.30;86.30;;;;;;4963496;28;20187;-78
2020/12/21 11:28:06;;;;;;;13.87;8.33;;;6.40;85.90;;;;;;4960693;28;20836;-77
2020/12/21 11:30:32;;;;;;;10.37;7.23;;;6.40;86.10;;;;;;4965924;28;20265;-75
2020/12/21 11:32:58;;;;;;;13.50;7.53;;;6.40;86.10;;;;;;4954530;28;20182;-75
2020/12/21 11:35:24;;;;;;;8.37;6.53;;;6.50;86.00;;;;;;4965401;28;20188;-76
2020/12/21 11:37:50;;;;;;;14.07;8.80;;;6.50;85.70;;;;;;4961183;28;20212;-80
2020/12/21 11:40:16;;;;;;;14.93;8.13;;;6.50;85.70;;;;;;4963225;28;20183;-76
2020/12/21 11:42:42;;;;;;;10.37;7.57;;;6.60;85.70;;;;;;4968791;28;20189;-77
2020/12/21 11:45:08;;;;;;;12.07;8.03;;;6.60;85.80;;;;;;4969981;28;20190;-77
2020/12/21 11:47:33;;;;;;;10.87;8.13;;;6.60;85.90;;;;;;4972706;28;20187;-75
2020/12/21 11:49:59;;;;;;;16.67;8.60;;;6.60;85.10;;;;;;4969801;28;20210;-77
2020/12/21 11:52:25;;;;;;;10.80;7.30;;;6.60;85.30;;;;;;4969602;28;20303;-76
2020/12/21 11:54:51;;;;;;;10.93;8.10;;;6.60;85.00;;;;;;4952513;28;20214;-76
2020/12/21 11:57:17;;;;;;;12.43;7.63;;;6.60;85.20;;;;;;4962109;28;20186;-77
2020/12/21 11:59:42;;;;;;;13.80;8.27;;;6.60;85.80;;;;;;4956136;28;20282;-76
2020/12/21 12:02:08;;;;;;;16.33;8.80;;;6.60;86.20;;;;;;4969144;28;20197;-77
2020/12/21 12:04:34;;;;;;;12.40;8.17;;;6.60;85.80;;;;;;4968475;28;20205;-76
2020/12/21 12:07:03;;;;;;;10.23;7.63;;;6.70;85.70;;;;;;4969796;28;20726;-78
2020/12/21 12:09:30;;;;;;;11.90;7.93;;;6.70;85.50;;;;;;4948852;28;20771;-76
2020/12/21 12:11:56;;;;;;;12.87;7.97;;;6.70;85.30;;;;;;4967489;28;20189;-76
2020/12/21 12:14:22;;;;;;;10.33;7.47;;;6.70;85.30;;;;;;4969904;28;20178;-76
2020/12/21 12:16:48;;;;;;;10.30;6.20;;;6.70;85.30;;;;;;4961797;28;20229;-77
2020/12/21 12:19:14;;;;;;;9.57;7.00;;;6.70;85.20;;;;;;4964136;28;20182;-76
2020/12/21 12:21:40;;;;;;;11.93;7.73;;;6.60;85.40;;;;;;4949280;28;20725;-76
2020/12/21 12:24:06;;;;;;;8.90;7.20;;;6.70;85.40;;;;;;4962539;28;20190;-76
2020/12/21 12:26:31;;;;;;;9.53;6.80;;;6.70;85.30;;;;;;4969291;28;20206;-76
2020/12/21 12:28:57;;;;;;;10.17;7.27;;;6.70;85.10;;;;;;4969368;28;20206;-76
2020/12/21 12:31:23;;;;;;;11.67;7.27;;;6.70;85.30;;;;;;4969481;28;20193;-76
2020/12/21 12:33:50;;;;;;;12.53;8.53;;;6.70;85.30;;;;;;4969562;28;20179;-77
2020/12/21 12:36:21;;;;;;;14.70;7.87;;;6.70;84.70;;;;;;4950093;28;20193;-77
2020/12/21 12:38:47;;;;;;;15.53;8.57;;;6.70;84.90;;;;;;4964163;28;20189;-76
2020/12/21 12:41:13;;;;;;;13.73;8.07;;;6.70;85.10;;;;;;4967648;28;20211;-76
2020/12/21 12:43:39;;;;;;;13.43;7.97;;;6.70;85.00;;;;;;4959567;28;20182;-76
2020/12/21 12:46:06;;;;;;;16.60;8.20;;;6.70;85.30;;;;;;4951519;28;20644;-76
2020/12/21 12:48:32;;;;;;;10.20;7.20;;;6.80;85.10;;;;;;4966177;28;20218;-75
2020/12/21 12:50:57;;;;;;;11.90;7.73;;;6.80;85.10;;;;;;4967847;28;20186;-76
2020/12/21 12:53:23;;;;;;;11.37;7.77;;;6.80;85.00;;;;;;4950325;28;20178;-76
2020/12/21 12:55:49;;;;;;;16.23;8.93;;;6.90;84.90;;;;;;4964793;28;20206;-76